Time;durP1;ratioP1;P1;durP2;ratioP2;P2;SDS_P1;SDS_P2;PMS_P1;PMS_P2;Temp;Humidity;BMP_temperature;BMP_pressure;BME280_temperature;BME280_humidity;BME280_pressure;Samples;Min_cycle;Max_cycle;Signal;HPM_P1;HPM_P2
2023/08/17 00:01:19;;;;;;;7.93;6.07;;;19.20;99.90;;;;;;4067606;29;20043;-62
2023/08/17 00:03:20;;;;;;;7.88;5.90;;;19.20;99.90;;;;;;4076173;29;20122;-60
2023/08/17 00:05:22;;;;;;;6.45;5.78;;;19.20;99.90;;;;;;4079054;29;20551;-62
2023/08/17 00:07:23;;;;;;;8.93;5.47;;;19.20;99.90;;;;;;4081078;29;20079;-62
2023/08/17 00:09:24;;;;;;;6.20;5.43;;;19.20;99.90;;;;;;4071762;29;20060;-63
2023/08/17 00:11:25;;;;;;;7.97;6.25;;;19.20;99.90;;;;;;4066168;29;20095;-62
2023/08/17 00:13:26;;;;;;;6.28;5.32;;;19.10;99.90;;;;;;4064809;29;20112;-62
2023/08/17 00:15:27;;;;;;;5.28;4.78;;;19.10;99.90;;;;;;4066083;29;20040;-64
2023/08/17 00:17:29;;;;;;;8.65;6.13;;;19.10;99.90;;;;;;4064753;29;20048;-63
2023/08/17 00:19:31;;;;;;;8.70;6.05;;;19.10;99.90;;;;;;4066157;29;20031;-62
2023/08/17 00:21:32;;;;;;;6.63;5.93;;;19.10;99.90;;;;;;4065002;29;20099;-58
2023/08/17 00:23:33;;;;;;;7.82;5.43;;;19.10;99.90;;;;;;4080247;29;20074;-62
2023/08/17 00:25:34;;;;;;;7.45;5.78;;;19.00;99.90;;;;;;4078168;29;20440;-61
2023/08/17 00:27:35;;;;;;;6.28;5.68;;;19.00;99.90;;;;;;4081363;29;20079;-64
2023/08/17 00:29:37;;;;;;;7.82;6.93;;;19.00;99.90;;;;;;4080364;29;20052;-62
2023/08/17 00:31:38;;;;;;;6.75;6.00;;;19.00;99.90;;;;;;4080184;29;20115;-63
2023/08/17 00:33:39;;;;;;;7.50;6.20;;;19.00;99.90;;;;;;4081226;29;20063;-63
2023/08/17 00:35:40;;;;;;;8.60;6.25;;;19.00;99.90;;;;;;4077355;29;20114;-62
2023/08/17 00:37:41;;;;;;;8.38;6.30;;;19.00;99.90;;;;;;4067498;29;20036;-61
2023/08/17 00:39:42;;;;;;;6.28;5.68;;;19.00;99.90;;;;;;4079440;29;20555;-59
2023/08/17 00:41:43;;;;;;;7.38;6.15;;;19.10;99.90;;;;;;4081432;29;20039;-62
2023/08/17 00:43:45;;;;;;;6.80;6.20;;;19.10;99.90;;;;;;4080141;29;20051;-63
2023/08/17 00:45:46;;;;;;;7.93;6.07;;;19.10;99.90;;;;;;4076132;29;20087;-62
2023/08/17 00:47:48;;;;;;;7.63;5.90;;;19.10;99.90;;;;;;4064417;29;20052;-61
2023/08/17 00:49:49;;;;;;;9.93;5.60;;;19.00;99.90;;;;;;4065737;29;20104;-60
2023/08/17 00:51:51;;;;;;;6.70;6.00;;;19.00;99.90;;;;;;4064610;29;20040;-62
2023/08/17 00:53:57;;;;;;;6.55;5.95;;;19.00;99.90;;;;;;4065666;29;20048;-60
2023/08/17 00:56:00;;;;;;;6.90;6.13;;;19.00;99.90;;;;;;4064445;29;20052;-60
2023/08/17 00:58:01;;;;;;;8.25;5.78;;;19.00;99.90;;;;;;4068425;29;20031;-61
2023/08/17 01:00:04;;;;;;;5.72;5.18;;;18.90;99.90;;;;;;4079299;29;20048;-61
2023/08/17 01:02:05;;;;;;;9.23;6.13;;;18.90;99.90;;;;;;4080139;29;20543;-62
2023/08/17 01:04:06;;;;;;;7.90;6.25;;;19.00;99.90;;;;;;4078603;29;20024;-60
2023/08/17 01:06:09;;;;;;;6.80;6.20;;;18.90;99.90;;;;;;4076189;29;20040;-61
2023/08/17 01:08:10;;;;;;;6.25;5.30;;;18.90;99.90;;;;;;4079295;29;20126;-60
2023/08/17 01:10:11;;;;;;;11.20;6.90;;;18.90;99.90;;;;;;4075482;29;20098;-63
2023/08/17 01:12:32;;;;;;;7.00;5.55;;;18.90;99.90;;;;;;4065218;29;20028;-62
2023/08/17 01:14:43;;;;;;;6.65;5.22;;;18.90;99.90;;;;;;4064199;29;20484;-61
2023/08/17 01:17:03;;;;;;;6.68;5.97;;;19.00;99.90;;;;;;4064754;29;20107;-61
2023/08/17 01:19:09;;;;;;;7.05;5.90;;;19.00;99.90;;;;;;4064579;29;20103;-60
2023/08/17 01:21:16;;;;;;;8.15;6.32;;;18.90;99.90;;;;;;4063261;29;20227;-61
2023/08/17 01:23:17;;;;;;;7.03;6.10;;;18.80;99.90;;;;;;4064692;29;20024;-62
2023/08/17 01:25:18;;;;;;;6.72;6.10;;;18.80;99.90;;;;;;4064701;29;20047;-61
2023/08/17 01:27:19;;;;;;;9.18;6.72;;;18.80;99.90;;;;;;4062753;29;20044;-61
2023/08/17 01:29:21;;;;;;;8.98;6.05;;;18.80;99.90;;;;;;4065115;29;20051;-63
2023/08/17 01:31:33;;;;;;;6.40;5.80;;;18.80;99.90;;;;;;4064343;29;20062;-62
2023/08/17 01:33:47;;;;;;;7.32;6.22;;;18.70;99.90;;;;;;4065165;29;20100;-61
2023/08/17 01:35:57;;;;;;;7.47;5.85;;;18.70;99.90;;;;;;4063711;29;20079;-61
2023/08/17 01:38:03;;;;;;;6.13;5.63;;;18.60;99.90;;;;;;4064787;29;20044;-61
2023/08/17 01:40:05;;;;;;;6.35;5.75;;;18.60;99.90;;;;;;4064102;29;20031;-60
2023/08/17 01:42:07;;;;;;;6.85;6.10;;;18.60;99.90;;;;;;4064538;29;20032;-62
2023/08/17 01:44:08;;;;;;;7.28;5.95;;;18.60;99.90;;;;;;4063791;29;20040;-63
2023/08/17 01:46:09;;;;;;;13.70;6.75;;;18.60;99.90;;;;;;4073575;29;20397;-61
2023/08/17 01:48:11;;;;;;;6.05;5.43;;;18.60;99.90;;;;;;4078757;29;20448;-65
2023/08/17 01:50:12;;;;;;;8.23;5.93;;;18.60;99.90;;;;;;4079960;29;20110;-62
2023/08/17 01:52:13;;;;;;;7.65;5.70;;;18.60;99.90;;;;;;4078739;29;20043;-61
2023/08/17 01:54:14;;;;;;;6.35;5.68;;;18.60;99.90;;;;;;4080970;29;20752;-62
2023/08/17 01:56:15;;;;;;;8.10;6.13;;;18.60;99.90;;;;;;4078916;29;20036;-61
2023/08/17 01:58:16;;;;;;;8.00;6.10;;;18.70;99.90;;;;;;4080182;29;20477;-62
2023/08/17 02:00:18;;;;;;;7.50;5.72;;;18.60;99.90;;;;;;4079726;29;20048;-65
2023/08/17 02:02:19;;;;;;;5.60;4.80;;;18.60;99.90;;;;;;4079409;29;20047;-62
2023/08/17 02:04:20;;;;;;;6.63;5.03;;;18.60;99.90;;;;;;4080006;29;20024;-61
2023/08/17 02:06:21;;;;;;;8.00;5.47;;;18.60;99.90;;;;;;4065152;29;21110;-64
2023/08/17 02:08:22;;;;;;;8.75;6.53;;;18.60;99.90;;;;;;4073107;29;20449;-60
2023/08/17 02:10:23;;;;;;;6.85;5.90;;;18.60;99.90;;;;;;4065678;29;20024;-63
2023/08/17 02:12:24;;;;;;;8.10;5.47;;;18.60;99.90;;;;;;4064804;29;20043;-62
2023/08/17 02:14:26;;;;;;;6.63;5.70;;;18.70;99.90;;;;;;4063566;29;20354;-64
2023/08/17 02:16:27;;;;;;;5.75;5.15;;;18.70;99.90;;;;;;4065271;29;20044;-61
2023/08/17 02:18:30;;;;;;;6.97;4.80;;;18.60;99.90;;;;;;4066558;29;20095;-64
2023/08/17 02:20:32;;;;;;;6.53;5.45;;;18.60;99.90;;;;;;4067386;29;20107;-61
2023/08/17 02:22:33;;;;;;;6.07;5.15;;;18.60;99.90;;;;;;4066440;29;20457;-64
2023/08/17 02:24:34;;;;;;;5.65;5.13;;;18.60;99.90;;;;;;4067651;29;20048;-66
2023/08/17 02:26:35;;;;;;;6.20;5.22;;;18.50;99.90;;;;;;4066230;29;20104;-62
2023/08/17 02:28:36;;;;;;;10.93;6.30;;;18.60;99.90;;;;;;4067565;29;20182;-60
2023/08/17 02:30:37;;;;;;;8.93;5.85;;;18.50;99.90;;;;;;4066979;29;20091;-61
2023/08/17 02:32:38;;;;;;;7.75;5.60;;;18.60;99.90;;;;;;4067307;29;20091;-63
2023/08/17 02:34:39;;;;;;;10.75;6.75;;;18.50;99.90;;;;;;4081833;29;20098;-62
2023/08/17 02:36:40;;;;;;;8.73;6.82;;;18.50;99.90;;;;;;4082120;29;20031;-62
2023/08/17 02:38:42;;;;;;;8.20;6.50;;;18.40;99.90;;;;;;4073604;29;20104;-61
2023/08/17 02:40:43;;;;;;;10.20;7.22;;;18.30;99.90;;;;;;4066372;29;20489;-65
2023/08/17 02:42:44;;;;;;;8.10;5.82;;;18.30;99.90;;;;;;4067125;29;20473;-63
2023/08/17 02:44:45;;;;;;;8.23;6.80;;;18.30;99.90;;;;;;4067045;29;20119;-63
2023/08/17 02:46:46;;;;;;;11.43;6.40;;;18.30;99.90;;;;;;4080629;29;20504;-66
2023/08/17 02:48:47;;;;;;;8.65;6.50;;;18.30;99.90;;;;;;4081430;29;20078;-60
2023/08/17 02:50:48;;;;;;;7.90;6.20;;;18.40;99.90;;;;;;4097020;29;20031;-61
2023/08/17 02:52:50;;;;;;;9.30;6.78;;;18.40;99.90;;;;;;4081902;29;20571;-63
2023/08/17 02:54:51;;;;;;;7.55;6.85;;;18.40;99.90;;;;;;4083091;29;20102;-60
2023/08/17 02:56:52;;;;;;;10.98;7.07;;;18.40;99.90;;;;;;4081847;29;20035;-62
2023/08/17 02:58:53;;;;;;;9.13;6.45;;;18.40;99.90;;;;;;4082847;29;20036;-61
2023/08/17 03:00:54;;;;;;;13.50;6.97;;;18.40;99.90;;;;;;4081873;29;20058;-61
2023/08/17 03:02:55;;;;;;;7.65;6.90;;;18.40;99.90;;;;;;4073268;29;20064;-66
2023/08/17 03:04:56;;;;;;;7.32;6.65;;;18.30;99.90;;;;;;4066262;29;20091;-62
2023/08/17 03:06:57;;;;;;;9.80;6.18;;;18.40;99.90;;;;;;4074892;29;20044;-61
2023/08/17 03:08:58;;;;;;;6.20;5.60;;;18.40;99.90;;;;;;4081471;29;20043;-62
2023/08/17 03:11:00;;;;;;;7.47;6.45;;;18.40;99.90;;;;;;4071562;29;20048;-63
2023/08/17 03:13:01;;;;;;;7.20;6.10;;;18.20;99.90;;;;;;4068699;29;20544;-62
2023/08/17 03:15:03;;;;;;;8.27;5.47;;;18.20;99.90;;;;;;4065758;29;20056;-61
2023/08/17 03:17:04;;;;;;;7.93;6.57;;;18.10;99.90;;;;;;4066890;29;20491;-63
2023/08/17 03:19:07;;;;;;;6.93;6.13;;;18.10;99.90;;;;;;4065698;29;20108;-62
2023/08/17 03:21:08;;;;;;;10.52;5.55;;;18.10;99.90;;;;;;4066978;29;20032;-63
2023/08/17 03:23:09;;;;;;;10.00;6.40;;;18.10;99.90;;;;;;4066052;29;20032;-61
2023/08/17 03:25:10;;;;;;;7.25;5.90;;;18.10;99.90;;;;;;4066921;29;20044;-62
2023/08/17 03:27:12;;;;;;;7.78;6.30;;;18.10;99.90;;;;;;4064702;29;20032;-63
2023/08/17 03:29:13;;;;;;;9.85;6.03;;;18.10;99.90;;;;;;4066723;29;20103;-63
2023/08/17 03:31:14;;;;;;;7.78;5.82;;;18.10;99.90;;;;;;4066070;29;20100;-61
2023/08/17 03:33:15;;;;;;;11.13;7.10;;;18.20;99.90;;;;;;4070998;29;20725;-61
2023/08/17 03:35:16;;;;;;;7.95;6.50;;;18.20;99.90;;;;;;4076121;29;20028;-63
2023/08/17 03:37:17;;;;;;;7.50;6.65;;;18.20;99.90;;;;;;4066195;29;20051;-62
2023/08/17 03:39:18;;;;;;;14.30;7.55;;;18.10;99.90;;;;;;4066037;29;20044;-61
2023/08/17 03:41:23;;;;;;;9.68;7.72;;;18.20;99.90;;;;;;4065612;29;20072;-63
2023/08/17 03:43:26;;;;;;;10.95;7.30;;;18.20;99.90;;;;;;4067025;29;20028;-63
2023/08/17 03:45:27;;;;;;;11.75;6.70;;;18.20;99.90;;;;;;4071014;29;20047;-61
2023/08/17 03:47:28;;;;;;;11.82;6.47;;;18.30;99.90;;;;;;4080162;29;20552;-62
2023/08/17 03:49:29;;;;;;;9.77;6.43;;;18.30;99.90;;;;;;4080742;29;20511;-61
2023/08/17 03:51:30;;;;;;;9.73;6.53;;;18.40;99.90;;;;;;4080523;29;20839;-64
2023/08/17 03:53:31;;;;;;;10.05;6.70;;;18.40;99.90;;;;;;4078789;29;20056;-64
2023/08/17 03:55:33;;;;;;;10.32;6.47;;;18.50;99.90;;;;;;4050632;29;20092;-63
2023/08/17 03:57:35;;;;;;;12.70;6.75;;;18.50;99.90;;;;;;4053448;29;20520;-61
2023/08/17 03:59:36;;;;;;;10.60;6.35;;;18.60;99.90;;;;;;4065760;29;20522;-61
2023/08/17 04:01:37;;;;;;;7.60;6.47;;;18.70;99.90;;;;;;4067758;29;20095;-65
2023/08/17 04:03:38;;;;;;;7.63;5.32;;;18.80;99.90;;;;;;4066918;29;20441;-63
2023/08/17 04:05:39;;;;;;;8.82;6.70;;;18.90;99.90;;;;;;4075395;29;20064;-62
2023/08/17 04:07:40;;;;;;;7.88;5.97;;;19.10;99.90;;;;;;4065831;29;20032;-62
2023/08/17 04:09:45;;;;;;;8.52;5.93;;;19.40;99.90;;;;;;4064452;29;20119;-62
2023/08/17 04:11:46;;;;;;;5.80;5.30;;;19.70;99.90;;;;;;4065536;29;20028;-62
2023/08/17 04:13:47;;;;;;;7.25;5.60;;;20.00;99.90;;;;;;4065277;29;20024;-62
2023/08/17 04:15:48;;;;;;;6.70;5.47;;;20.30;99.90;;;;;;4065388;29;20044;-63
2023/08/17 04:17:49;;;;;;;9.13;6.22;;;20.30;99.90;;;;;;4065571;29;20040;-62
2023/08/17 04:19:50;;;;;;;6.78;5.95;;;20.40;99.90;;;;;;4064765;29;20060;-62
2023/08/17 04:21:51;;;;;;;9.55;6.18;;;20.40;99.90;;;;;;4065755;29;20080;-62
2023/08/17 04:23:52;;;;;;;7.13;5.63;;;20.40;99.90;;;;;;4064712;29;20557;-61
2023/08/17 04:25:55;;;;;;;9.50;5.78;;;20.60;99.90;;;;;;4064832;29;20044;-62
2023/08/17 04:27:56;;;;;;;6.45;5.30;;;20.70;99.90;;;;;;4063894;29;20055;-62
2023/08/17 04:29:57;;;;;;;9.23;5.97;;;20.70;99.90;;;;;;4065397;29;20131;-62
2023/08/17 04:31:59;;;;;;;7.70;5.63;;;20.60;99.90;;;;;;4064676;29;20087;-61
2023/08/17 04:34:00;;;;;;;8.38;6.20;;;20.40;99.90;;;;;;4065334;29;20047;-64
2023/08/17 04:36:01;;;;;;;10.93;5.90;;;20.20;99.90;;;;;;4058510;29;20052;-61
2023/08/17 04:38:02;;;;;;;9.38;5.90;;;20.10;99.90;;;;;;4076168;29;20071;-65
2023/08/17 04:40:05;;;;;;;10.60;5.53;;;20.10;99.90;;;;;;4063768;29;20061;-63
2023/08/17 04:42:06;;;;;;;8.18;5.88;;;20.00;99.90;;;;;;4055300;29;20454;-62
2023/08/17 04:44:07;;;;;;;7.20;6.07;;;19.90;99.90;;;;;;4062428;29;20471;-63
2023/08/17 04:46:08;;;;;;;10.57;5.40;;;19.90;99.90;;;;;;4062284;29;20084;-60
2023/08/17 04:48:09;;;;;;;9.38;6.55;;;19.90;99.90;;;;;;4061932;29;20069;-65
2023/08/17 04:50:15;;;;;;;10.98;6.78;;;20.10;99.90;;;;;;4074200;29;20130;-65
2023/08/17 04:52:17;;;;;;;7.30;5.40;;;20.10;99.90;;;;;;4065359;29;20048;-61
2023/08/17 04:54:18;;;;;;;10.02;5.88;;;20.20;99.90;;;;;;4064982;29;20040;-63
2023/08/17 04:56:20;;;;;;;6.75;5.00;;;20.20;99.90;;;;;;4065623;29;20579;-62
2023/08/17 04:58:22;;;;;;;8.18;6.18;;;20.10;99.90;;;;;;4063542;29;20091;-65
2023/08/17 05:00:28;;;;;;;5.78;5.07;;;20.10;99.90;;;;;;4051353;29;20132;-63
2023/08/17 05:02:29;;;;;;;7.30;5.82;;;20.10;99.90;;;;;;4063639;29;20048;-60
2023/08/17 05:04:31;;;;;;;9.40;6.05;;;20.00;99.90;;;;;;4072983;29;20031;-64
2023/08/17 05:06:32;;;;;;;8.40;5.93;;;19.90;99.90;;;;;;4069840;29;20044;-65
2023/08/17 05:08:33;;;;;;;7.70;5.90;;;20.00;99.90;;;;;;4063517;29;20096;-62
2023/08/17 05:10:34;;;;;;;6.43;5.78;;;20.20;99.90;;;;;;4063015;29;20044;-63
2023/08/17 05:12:35;;;;;;;8.57;6.30;;;20.50;99.90;;;;;;4065017;29;20032;-63
2023/08/17 05:14:36;;;;;;;11.10;5.70;;;20.80;99.90;;;;;;4063527;29;20410;-64
2023/08/17 05:16:37;;;;;;;8.52;5.40;;;21.20;99.90;;;;;;4064502;29;20104;-62
2023/08/17 05:18:39;;;;;;;7.88;5.65;;;21.40;99.90;;;;;;4064061;29;20047;-65
2023/08/17 05:20:40;;;;;;;8.07;5.70;;;21.40;99.90;;;;;;4064424;29;20039;-63
2023/08/17 05:22:41;;;;;;;7.75;5.25;;;21.90;99.90;;;;;;4064236;29;20477;-62
2023/08/17 05:24:42;;;;;;;7.70;5.60;;;22.40;99.90;;;;;;4063620;29;20036;-64
2023/08/17 05:26:44;;;;;;;9.70;5.72;;;22.90;99.90;;;;;;4064699;29;20111;-64
2023/08/17 05:28:45;;;;;;;14.10;5.97;;;23.50;99.90;;;;;;4064261;29;20489;-65
2023/08/17 05:30:46;;;;;;;16.17;6.35;;;23.90;99.90;;;;;;4062849;29;20127;-63
2023/08/17 05:32:47;;;;;;;14.55;7.40;;;24.00;99.90;;;;;;4065350;29;20508;-65
2023/08/17 05:34:49;;;;;;;12.60;7.82;;;24.20;99.90;;;;;;4061781;29;20048;-64
2023/08/17 05:36:50;;;;;;;14.45;8.65;;;24.20;99.90;;;;;;4057099;29;20044;-65
2023/08/17 05:38:51;;;;;;;14.45;7.47;;;24.10;99.90;;;;;;4062127;29;20112;-62
2023/08/17 05:40:56;;;;;;;10.18;8.00;;;24.00;99.90;;;;;;4062438;29;20051;-64
2023/08/17 05:42:57;;;;;;;14.73;8.15;;;23.50;99.90;;;;;;4066870;29;20587;-64
2023/08/17 05:44:58;;;;;;;12.30;7.95;;;23.50;99.90;;;;;;4063263;29;20037;-62
2023/08/17 05:46:59;;;;;;;9.85;8.15;;;23.50;99.90;;;;;;4064707;29;20099;-64
2023/08/17 05:49:01;;;;;;;15.05;9.77;;;23.50;99.90;;;;;;4063631;29;20084;-63
2023/08/17 05:51:02;;;;;;;16.52;11.43;;;23.70;99.90;;;;;;4074786;29;20024;-63
2023/08/17 05:53:04;;;;;;;25.95;13.02;;;23.80;99.90;;;;;;4080680;29;20023;-63
2023/08/17 05:55:05;;;;;;;27.73;13.43;;;23.90;99.90;;;;;;4081158;29;20027;-65
2023/08/17 05:57:07;;;;;;;26.08;13.57;;;24.00;99.90;;;;;;4069422;29;20032;-61
2023/08/17 05:59:08;;;;;;;24.60;11.70;;;23.80;99.90;;;;;;4066151;29;20036;-63
2023/08/17 06:01:10;;;;;;;25.45;13.10;;;23.80;99.90;;;;;;4070153;29;20056;-63
2023/08/17 06:03:12;;;;;;;22.65;13.23;;;23.70;99.90;;;;;;4066265;29;20040;-63
2023/08/17 06:05:13;;;;;;;20.80;12.27;;;23.60;99.90;;;;;;4075400;29;20496;-63
2023/08/17 06:07:14;;;;;;;27.52;12.07;;;23.60;99.90;;;;;;4079734;29;20468;-63
2023/08/17 06:09:15;;;;;;;27.90;13.75;;;23.70;99.90;;;;;;4067588;29;20095;-64
2023/08/17 06:11:17;;;;;;;30.40;14.32;;;23.70;99.90;;;;;;4066129;29;20036;-65
2023/08/17 06:13:18;;;;;;;36.28;13.50;;;23.70;99.90;;;;;;4075616;29;20119;-63
2023/08/17 06:15:19;;;;;;;31.65;14.02;;;23.80;99.90;;;;;;4081607;29;20715;-62
2023/08/17 06:17:20;;;;;;;32.08;12.32;;;23.70;99.90;;;;;;4083127;29;20040;-62
2023/08/17 06:19:21;;;;;;;27.50;11.45;;;23.60;99.90;;;;;;4081346;29;20048;-64
2023/08/17 06:21:22;;;;;;;25.17;10.50;;;23.20;99.90;;;;;;4082986;29;20122;-61
2023/08/17 06:23:25;;;;;;;19.88;10.05;;;23.00;99.90;;;;;;4078235;29;20044;-63
2023/08/17 06:25:26;;;;;;;14.45;8.77;;;22.90;99.90;;;;;;4066577;29;20096;-67
2023/08/17 06:27:27;;;;;;;14.10;8.60;;;22.90;99.90;;;;;;4073058;29;20440;-65
2023/08/17 06:29:28;;;;;;;19.35;8.70;;;22.70;99.90;;;;;;4078930;29;20503;-66
2023/08/17 06:31:30;;;;;;;16.23;8.02;;;22.80;99.90;;;;;;4070792;29;20472;-64
2023/08/17 06:33:31;;;;;;;10.88;7.50;;;22.90;99.90;;;;;;4062186;29;20028;-67
2023/08/17 06:35:32;;;;;;;13.23;7.35;;;22.90;99.90;;;;;;4051407;29;20761;-66
2023/08/17 06:37:33;;;;;;;9.63;7.07;;;23.00;99.90;;;;;;4054356;29;20036;-65
2023/08/17 06:39:34;;;;;;;13.18;8.95;;;23.30;99.90;;;;;;4076133;29;20468;-63
2023/08/17 06:41:35;;;;;;;12.73;7.45;;;23.70;99.90;;;;;;4075351;29;20043;-63
2023/08/17 06:43:36;;;;;;;9.23;7.10;;;24.00;99.90;;;;;;4066561;29;20055;-63
2023/08/17 06:45:38;;;;;;;12.40;8.90;;;24.10;99.90;;;;;;4069880;29;20044;-66
2023/08/17 06:47:39;;;;;;;11.73;7.55;;;23.90;99.90;;;;;;4066741;29;21020;-63
2023/08/17 06:49:40;;;;;;;9.80;8.50;;;23.60;99.90;;;;;;4064696;29;20107;-62
2023/08/17 06:51:41;;;;;;;13.20;7.32;;;23.40;99.90;;;;;;4066984;29;20028;-65
2023/08/17 06:53:42;;;;;;;10.32;8.10;;;23.50;99.90;;;;;;4065742;29;20036;-66
2023/08/17 06:55:43;;;;;;;14.50;8.35;;;23.60;99.90;;;;;;4066486;29;20111;-61
2023/08/17 06:57:45;;;;;;;10.30;8.40;;;23.70;99.90;;;;;;4069983;29;20040;-64
2023/08/17 06:59:46;;;;;;;10.27;7.22;;;23.80;99.90;;;;;;4065616;29;20529;-63
2023/08/17 07:01:47;;;;;;;13.02;7.70;;;23.90;99.90;;;;;;4078725;29;20080;-65
2023/08/17 07:03:48;;;;;;;13.82;7.15;;;24.00;99.90;;;;;;4075801;29;20088;-66
2023/08/17 07:05:50;;;;;;;10.32;7.00;;;24.30;99.90;;;;;;4066149;29;20124;-64
2023/08/17 07:07:52;;;;;;;7.95;7.15;;;24.40;99.90;;;;;;4065132;29;20172;-62
2023/08/17 07:09:53;;;;;;;8.55;6.57;;;24.50;99.90;;;;;;4078331;29;20468;-60
2023/08/17 07:11:55;;;;;;;8.38;6.78;;;24.40;99.90;;;;;;4080227;29;20396;-61
2023/08/17 07:13:56;;;;;;;8.50;6.50;;;24.70;99.90;;;;;;4081244;29;20120;-61
2023/08/17 07:15:57;;;;;;;8.02;6.25;;;25.10;99.90;;;;;;4080422;29;20569;-63
2023/08/17 07:17:58;;;;;;;6.82;6.13;;;25.30;99.90;;;;;;4080568;29;20188;-62
2023/08/17 07:19:59;;;;;;;8.27;6.25;;;25.20;99.90;;;;;;4080910;29;20091;-63
2023/08/17 07:22:01;;;;;;;10.45;5.75;;;25.20;99.90;;;;;;4081605;29;20098;-62
2023/08/17 07:24:15;;;;;;;6.70;5.75;;;25.60;99.90;;;;;;4073657;29;20091;-63
2023/08/17 07:26:18;;;;;;;10.45;5.22;;;26.00;99.90;;;;;;4069748;29;20023;-64
2023/08/17 07:28:19;;;;;;;8.02;6.57;;;26.00;99.90;;;;;;4080130;29;20040;-66
2023/08/17 07:30:21;;;;;;;7.15;5.72;;;25.80;99.90;;;;;;4077507;29;20055;-64
2023/08/17 07:32:22;;;;;;;9.52;6.57;;;25.60;99.90;;;;;;4076281;29;20469;-64
2023/08/17 07:34:23;;;;;;;7.10;6.40;;;25.60;99.90;;;;;;4078419;29;20075;-65
2023/08/17 07:36:24;;;;;;;9.75;5.97;;;25.60;99.90;;;;;;4080451;29;20051;-64
2023/08/17 07:38:25;;;;;;;7.00;6.35;;;25.60;99.90;;;;;;4078440;29;20436;-63
2023/08/17 07:40:26;;;;;;;10.23;6.72;;;25.40;99.90;;;;;;4075174;29;20036;-62
2023/08/17 07:42:27;;;;;;;8.32;6.00;;;25.20;99.90;;;;;;4064687;29;20120;-64
2023/08/17 07:44:31;;;;;;;7.30;6.40;;;25.20;99.90;;;;;;4064929;29;20036;-63
2023/08/17 07:46:32;;;;;;;7.55;5.38;;;25.20;99.90;;;;;;4064644;29;20096;-64
2023/08/17 07:48:33;;;;;;;9.82;6.22;;;25.40;99.90;;;;;;4064291;29;20056;-60
2023/08/17 07:50:34;;;;;;;13.23;6.35;;;25.60;99.90;;;;;;4064403;29;20096;-63
2023/08/17 07:52:36;;;;;;;7.72;5.65;;;25.80;99.90;;;;;;4065724;29;20040;-62
2023/08/17 07:54:37;;;;;;;6.35;5.53;;;25.90;99.90;;;;;;4064976;29;20059;-63
2023/08/17 07:56:38;;;;;;;9.38;5.45;;;26.00;99.90;;;;;;4081563;29;20020;-62
2023/08/17 07:58:39;;;;;;;10.90;5.57;;;26.00;99.90;;;;;;4080068;29;20065;-62
2023/08/17 08:00:40;;;;;;;7.15;4.68;;;26.00;99.90;;;;;;4078929;29;20044;-65
2023/08/17 08:02:41;;;;;;;6.93;5.13;;;25.90;99.90;;;;;;4074923;29;20480;-63
2023/08/17 08:04:43;;;;;;;6.03;5.43;;;25.90;99.90;;;;;;4067895;29;20044;-62
2023/08/17 08:06:44;;;;;;;10.73;5.53;;;25.90;99.90;;;;;;4069175;29;20165;-65
2023/08/17 08:08:45;;;;;;;12.70;4.80;;;26.00;99.90;;;;;;4064370;29;20040;-64
2023/08/17 08:10:46;;;;;;;4.60;3.72;;;26.10;99.90;;;;;;4063576;29;20056;-62
2023/08/17 08:12:47;;;;;;;5.53;4.28;;;26.10;99.90;;;;;;4063000;29;20116;-64
2023/08/17 08:14:49;;;;;;;5.78;4.18;;;26.20;99.90;;;;;;4063341;29;20064;-63
2023/08/17 08:16:51;;;;;;;8.23;4.95;;;26.30;99.90;;;;;;4059940;29;20092;-63
2023/08/17 08:18:52;;;;;;;7.25;4.95;;;26.30;99.90;;;;;;4078608;29;20139;-62
2023/08/17 08:20:53;;;;;;;7.97;4.20;;;26.40;99.90;;;;;;4072039;29;20568;-64
2023/08/17 08:22:54;;;;;;;11.80;5.45;;;26.40;99.90;;;;;;4065110;29;20031;-64
2023/08/17 08:24:55;;;;;;;11.88;5.00;;;26.50;99.90;;;;;;4070247;29;20046;-63
2023/08/17 08:26:57;;;;;;;8.50;5.40;;;26.80;99.90;;;;;;4065459;29;21120;-62
2023/08/17 08:28:58;;;;;;;6.72;4.78;;;26.80;99.90;;;;;;4067042;29;20108;-61
2023/08/17 08:31:03;;;;;;;7.88;5.45;;;26.70;99.90;;;;;;4064746;29;20492;-62
2023/08/17 08:33:04;;;;;;;12.25;5.35;;;26.60;99.90;;;;;;4078827;29;20107;-61
2023/08/17 08:35:06;;;;;;;10.30;5.63;;;26.80;99.90;;;;;;4065472;29;20091;-64
2023/08/17 08:37:07;;;;;;;8.43;4.85;;;27.00;99.90;;;;;;4065558;29;20027;-63
2023/08/17 08:39:08;;;;;;;8.68;5.15;;;27.30;99.90;;;;;;4074468;29;20055;-65
2023/08/17 08:41:11;;;;;;;10.77;5.35;;;27.50;99.90;;;;;;4064685;29;20091;-64
2023/08/17 08:43:12;;;;;;;11.77;5.45;;;27.50;99.90;;;;;;4063729;29;20084;-64
2023/08/17 08:45:14;;;;;;;5.43;4.85;;;27.70;99.90;;;;;;4065771;29;20398;-63
2023/08/17 08:47:17;;;;;;;6.63;4.57;;;27.70;99.90;;;;;;4063853;29;20107;-64
2023/08/17 08:49:24;;;;;;;9.00;5.88;;;28.10;99.90;;;;;;4064523;29;20115;-64
2023/08/17 08:51:28;;;;;;;7.35;4.90;;;28.40;99.90;;;;;;4064108;29;20044;-63
2023/08/17 08:53:45;;;;;;;5.20;4.65;;;28.50;99.90;;;;;;4065243;29;20127;-64
2023/08/17 08:55:58;;;;;;;7.85;4.80;;;28.50;99.90;;;;;;4063982;29;20040;-62
2023/08/17 08:58:00;;;;;;;11.32;4.57;;;28.20;99.90;;;;;;4064644;29;20477;-65
2023/08/17 09:00:02;;;;;;;8.20;4.20;;;28.30;99.90;;;;;;4063372;29;20047;-62
2023/08/17 09:02:03;;;;;;;10.57;4.40;;;28.10;99.90;;;;;;4058486;29;20985;-64
2023/08/17 09:04:05;;;;;;;6.50;3.97;;;27.90;99.90;;;;;;4063354;29;20098;-62
2023/08/17 09:06:08;;;;;;;6.40;4.00;;;27.90;99.90;;;;;;4064348;29;20112;-63
2023/08/17 09:08:11;;;;;;;4.43;3.90;;;28.10;99.90;;;;;;4062485;29;20095;-64
2023/08/17 09:10:12;;;;;;;10.25;4.05;;;28.10;99.90;;;;;;4064089;29;20056;-63
2023/08/17 09:12:13;;;;;;;3.92;3.63;;;28.20;99.90;;;;;;4075773;29;20114;-64
2023/08/17 09:14:15;;;;;;;8.00;4.05;;;28.30;99.90;;;;;;4072962;29;20025;-62
2023/08/17 09:16:16;;;;;;;5.25;3.83;;;28.30;99.90;;;;;;4077853;29;20035;-62
2023/08/17 09:18:17;;;;;;;7.25;3.85;;;28.20;99.90;;;;;;4071329;29;20437;-64
2023/08/17 09:20:37;;;;;;;4.05;3.40;;;28.20;99.90;;;;;;4075624;29;20024;-63
2023/08/17 09:22:39;;;;;;;;;;;28.30;99.90;;;;;;4080924;29;20032;-66
2023/08/17 09:24:41;;;;;;;4.72;3.42;;;28.70;99.90;;;;;;4065551;29;19959;-64
2023/08/17 09:26:42;;;;;;;4.38;3.28;;;28.80;99.90;;;;;;4063878;29;20028;-65
2023/08/17 09:28:43;;;;;;;4.32;3.60;;;28.80;99.90;;;;;;4064018;29;20044;-64
2023/08/17 09:30:56;;;;;;;4.03;3.22;;;28.90;99.90;;;;;;4064082;29;20076;-64
2023/08/17 09:33:02;;;;;;;4.72;3.25;;;28.80;99.90;;;;;;4070659;29;20421;-62
2023/08/17 09:35:06;;;;;;;7.07;3.40;;;28.80;99.90;;;;;;4079081;29;20048;-65
2023/08/17 09:37:08;;;;;;;6.72;3.90;;;28.80;99.90;;;;;;4074120;29;20434;-65
2023/08/17 09:39:09;;;;;;;5.95;3.28;;;28.90;99.90;;;;;;4063286;29;20055;-61
2023/08/17 09:41:10;;;;;;;3.80;3.30;;;28.90;99.90;;;;;;4063001;29;20056;-64
2023/08/17 09:43:12;;;;;;;4.85;3.63;;;29.00;99.90;;;;;;4067859;29;20425;-64
2023/08/17 09:45:17;;;;;;;4.97;3.40;;;29.10;99.90;;;;;;4079138;29;20138;-61
2023/08/17 09:47:22;;;;;;;3.40;3.10;;;29.30;99.90;;;;;;4078797;29;20151;-63
2023/08/17 09:49:24;;;;;;;6.80;3.50;;;29.50;99.90;;;;;;4080001;29;20170;-63
2023/08/17 09:51:25;;;;;;;5.95;3.50;;;29.50;99.90;;;;;;4078875;29;20154;-65
2023/08/17 09:53:26;;;;;;;6.43;3.45;;;29.30;99.90;;;;;;4080013;29;20031;-63
2023/08/17 09:55:33;;;;;;;4.32;3.88;;;29.10;99.90;;;;;;4076718;29;20114;-64
2023/08/17 09:57:36;;;;;;;4.60;3.13;;;28.90;99.90;;;;;;4079857;29;20473;-63
2023/08/17 09:59:37;;;;;;;6.30;3.30;;;28.70;99.90;;;;;;4078273;29;20834;-62
2023/08/17 10:01:39;;;;;;;6.35;3.65;;;28.70;99.90;;;;;;4079410;29;20099;-64
2023/08/17 10:03:45;;;;;;;5.28;3.58;;;28.60;99.90;;;;;;4078838;29;20106;-63
2023/08/17 10:05:53;;;;;;;3.65;3.35;;;28.70;99.90;;;;;;4078996;29;20043;-61
2023/08/17 10:07:57;;;;;;;3.75;3.35;;;28.70;99.90;;;;;;4078991;29;20031;-64
2023/08/17 10:10:06;;;;;;;6.65;4.03;;;28.70;99.90;;;;;;4079509;29;20110;-63
2023/08/17 10:12:11;;;;;;;7.05;3.60;;;28.70;99.90;;;;;;4079016;29;20035;-59
2023/08/17 10:14:21;;;;;;;4.25;3.30;;;28.70;99.90;;;;;;4079406;29;20036;-61
2023/08/17 10:16:28;;;;;;;4.53;2.95;;;28.70;99.90;;;;;;4078621;29;20401;-61
2023/08/17 10:18:46;;;;;;;7.72;3.35;;;28.80;99.90;;;;;;4078965;29;20048;-62
2023/08/17 10:21:01;;;;;;;3.85;3.55;;;28.80;99.90;;;;;;4078804;29;20020;-64
2023/08/17 10:23:17;;;;;;;4.15;2.90;;;28.80;99.90;;;;;;4079034;29;20444;-61
2023/08/17 10:25:20;;;;;;;4.50;3.15;;;28.80;99.90;;;;;;4078723;29;20106;-64
2023/08/17 10:27:21;;;;;;;3.45;3.15;;;28.90;99.90;;;;;;4079629;29;20079;-60
2023/08/17 10:29:23;;;;;;;4.43;2.75;;;29.00;99.90;;;;;;4078296;29;20396;-63
2023/08/17 10:31:26;;;;;;;3.40;3.10;;;29.20;99.80;;;;;;4078729;29;20051;-62
2023/08/17 10:33:28;;;;;;;3.42;3.13;;;29.20;99.90;;;;;;4079249;29;20039;-62